sensor_id;sensor_type;location;lat;lon;timestamp;P1;durP1;ratioP1;P2;durP2;ratioP2
56321;SDS011;42227;6.376;-10.782;2023-03-14T00:01:17;20.75;;;10.48;;
56321;SDS011;42227;6.376;-10.782;2023-03-14T00:03:46;19.08;;;9.75;;
56321;SDS011;42227;6.376;-10.782;2023-03-14T00:06:15;14.40;;;11.00;;
56321;SDS011;42227;6.376;-10.782;2023-03-14T00:08:44;17.80;;;10.85;;
56321;SDS011;42227;6.376;-10.782;2023-03-14T00:11:15;25.90;;;12.27;;
56321;SDS011;42227;6.376;-10.782;2023-03-14T00:13:48;22.75;;;12.20;;
56321;SDS011;42227;6.376;-10.782;2023-03-14T00:16:17;18.85;;;9.95;;
56321;SDS011;42227;6.376;-10.782;2023-03-14T00:18:46;18.65;;;11.25;;
56321;SDS011;42227;6.376;-10.782;2023-03-14T00:21:14;18.90;;;13.57;;
56321;SDS011;42227;6.376;-10.782;2023-03-14T00:23:42;55.30;;;32.35;;
56321;SDS011;42227;6.376;-10.782;2023-03-14T00:26:12;52.97;;;34.15;;
56321;SDS011;42227;6.376;-10.782;2023-03-14T00:28:42;32.65;;;22.17;;
56321;SDS011;42227;6.376;-10.782;2023-03-14T00:31:11;36.28;;;17.80;;
56321;SDS011;42227;6.376;-10.782;2023-03-14T00:33:42;60.80;;;31.80;;
56321;SDS011;42227;6.376;-10.782;2023-03-14T00:36:13;74.13;;;38.47;;
56321;SDS011;42227;6.376;-10.782;2023-03-14T00:38:44;62.97;;;31.23;;
56321;SDS011;42227;6.376;-10.782;2023-03-14T00:41:16;57.27;;;27.07;;
56321;SDS011;42227;6.376;-10.782;2023-03-14T00:43:46;19.67;;;13.07;;
56321;SDS011;42227;6.376;-10.782;2023-03-14T00:46:14;33.55;;;17.92;;
56321;SDS011;42227;6.376;-10.782;2023-03-14T00:48:46;58.45;;;34.33;;
56321;SDS011;42227;6.376;-10.782;2023-03-14T00:51:15;55.47;;;29.45;;
56321;SDS011;42227;6.376;-10.782;2023-03-14T00:53:44;54.10;;;31.90;;
56321;SDS011;42227;6.376;-10.782;2023-03-14T00:56:12;65.35;;;32.70;;
56321;SDS011;42227;6.376;-10.782;2023-03-14T00:58:41;48.17;;;31.85;;
56321;SDS011;42227;6.376;-10.782;2023-03-14T01:01:12;38.58;;;26.95;;
56321;SDS011;42227;6.376;-10.782;2023-03-14T01:03:45;33.90;;;20.27;;
56321;SDS011;42227;6.376;-10.782;2023-03-14T01:06:16;39.10;;;23.25;;
56321;SDS011;42227;6.376;-10.782;2023-03-14T01:08:46;50.08;;;31.50;;
56321;SDS011;42227;6.376;-10.782;2023-03-14T01:11:16;48.60;;;26.10;;
56321;SDS011;42227;6.376;-10.782;2023-03-14T01:13:47;41.70;;;26.92;;
56321;SDS011;42227;6.376;-10.782;2023-03-14T01:16:17;36.10;;;26.80;;
56321;SDS011;42227;6.376;-10.782;2023-03-14T01:18:46;40.55;;;29.52;;
56321;SDS011;42227;6.376;-10.782;2023-03-14T01:21:16;52.03;;;34.70;;
56321;SDS011;42227;6.376;-10.782;2023-03-14T01:23:50;87.05;;;45.92;;
56321;SDS011;42227;6.376;-10.782;2023-03-14T01:26:20;82.95;;;51.35;;
56321;SDS011;42227;6.376;-10.782;2023-03-14T01:28:51;74.82;;;46.10;;
56321;SDS011;42227;6.376;-10.782;2023-03-14T01:31:21;64.25;;;43.47;;
56321;SDS011;42227;6.376;-10.782;2023-03-14T01:33:51;72.00;;;45.30;;
56321;SDS011;42227;6.376;-10.782;2023-03-14T01:36:20;68.68;;;40.55;;
56321;SDS011;42227;6.376;-10.782;2023-03-14T01:38:48;59.78;;;41.67;;
56321;SDS011;42227;6.376;-10.782;2023-03-14T01:41:18;61.10;;;40.38;;
56321;SDS011;42227;6.376;-10.782;2023-03-14T01:43:54;68.43;;;41.70;;
56321;SDS011;42227;6.376;-10.782;2023-03-14T01:46:28;60.58;;;40.55;;
56321;SDS011;42227;6.376;-10.782;2023-03-14T01:54:39;71.65;;;45.33;;
56321;SDS011;42227;6.376;-10.782;2023-03-14T01:57:33;66.18;;;42.05;;
56321;SDS011;42227;6.376;-10.782;2023-03-14T02:00:12;76.18;;;51.20;;
56321;SDS011;42227;6.376;-10.782;2023-03-14T02:02:44;81.05;;;51.63;;
56321;SDS011;42227;6.376;-10.782;2023-03-14T02:05:20;78.10;;;45.80;;
56321;SDS011;42227;6.376;-10.782;2023-03-14T02:07:56;72.47;;;47.05;;
56321;SDS011;42227;6.376;-10.782;2023-03-14T02:10:31;69.07;;;44.58;;
56321;SDS011;42227;6.376;-10.782;2023-03-14T02:13:04;82.70;;;52.05;;
56321;SDS011;42227;6.376;-10.782;2023-03-14T02:16:09;60.53;;;40.88;;
56321;SDS011;42227;6.376;-10.782;2023-03-14T02:18:56;52.30;;;34.05;;
56321;SDS011;42227;6.376;-10.782;2023-03-14T02:21:38;48.17;;;34.67;;
56321;SDS011;42227;6.376;-10.782;2023-03-14T02:27:24;50.63;;;32.88;;
56321;SDS011;42227;6.376;-10.782;2023-03-14T02:30:13;51.67;;;34.75;;
56321;SDS011;42227;6.376;-10.782;2023-03-14T02:32:48;47.95;;;32.70;;
56321;SDS011;42227;6.376;-10.782;2023-03-14T02:35:30;51.53;;;34.13;;
56321;SDS011;42227;6.376;-10.782;2023-03-14T02:40:50;60.40;;;35.17;;
56321;SDS011;42227;6.376;-10.782;2023-03-14T02:43:19;73.13;;;37.75;;
56321;SDS011;42227;6.376;-10.782;2023-03-14T02:45:53;68.90;;;38.25;;
56321;SDS011;42227;6.376;-10.782;2023-03-14T02:51:21;47.08;;;31.45;;
56321;SDS011;42227;6.376;-10.782;2023-03-14T02:53:51;50.83;;;33.88;;
56321;SDS011;42227;6.376;-10.782;2023-03-14T02:56:21;45.42;;;35.55;;
56321;SDS011;42227;6.376;-10.782;2023-03-14T02:58:49;49.78;;;36.63;;
56321;SDS011;42227;6.376;-10.782;2023-03-14T03:01:39;48.72;;;34.30;;
56321;SDS011;42227;6.376;-10.782;2023-03-14T03:04:08;46.97;;;35.83;;
56321;SDS011;42227;6.376;-10.782;2023-03-14T03:06:36;55.60;;;35.42;;
56321;SDS011;42227;6.376;-10.782;2023-03-14T03:09:04;53.78;;;35.10;;
56321;SDS011;42227;6.376;-10.782;2023-03-14T03:11:32;42.33;;;30.92;;
56321;SDS011;42227;6.376;-10.782;2023-03-14T03:14:03;49.40;;;38.08;;
56321;SDS011;42227;6.376;-10.782;2023-03-14T03:16:31;59.22;;;36.75;;
56321;SDS011;42227;6.376;-10.782;2023-03-14T03:18:59;51.08;;;35.47;;
56321;SDS011;42227;6.376;-10.782;2023-03-14T03:21:27;51.58;;;31.48;;
56321;SDS011;42227;6.376;-10.782;2023-03-14T03:23:56;49.42;;;30.55;;
56321;SDS011;42227;6.376;-10.782;2023-03-14T03:26:24;52.53;;;35.55;;
56321;SDS011;42227;6.376;-10.782;2023-03-14T03:28:53;61.20;;;36.75;;
56321;SDS011;42227;6.376;-10.782;2023-03-14T03:31:22;52.78;;;37.75;;
56321;SDS011;42227;6.376;-10.782;2023-03-14T03:33:50;53.78;;;34.80;;
56321;SDS011;42227;6.376;-10.782;2023-03-14T03:36:22;51.00;;;38.15;;
56321;SDS011;42227;6.376;-10.782;2023-03-14T03:38:52;69.07;;;53.92;;
56321;SDS011;42227;6.376;-10.782;2023-03-14T03:41:20;58.30;;;45.92;;
56321;SDS011;42227;6.376;-10.782;2023-03-14T03:43:49;67.00;;;43.67;;
56321;SDS011;42227;6.376;-10.782;2023-03-14T03:46:19;40.97;;;31.45;;
56321;SDS011;42227;6.376;-10.782;2023-03-14T03:48:47;41.38;;;32.03;;
56321;SDS011;42227;6.376;-10.782;2023-03-14T03:51:17;51.45;;;33.40;;
56321;SDS011;42227;6.376;-10.782;2023-03-14T03:53:46;56.25;;;35.65;;
56321;SDS011;42227;6.376;-10.782;2023-03-14T03:56:19;67.28;;;45.05;;
56321;SDS011;42227;6.376;-10.782;2023-03-14T03:58:49;64.72;;;42.10;;
56321;SDS011;42227;6.376;-10.782;2023-03-14T04:01:17;63.95;;;41.92;;
56321;SDS011;42227;6.376;-10.782;2023-03-14T04:03:49;60.35;;;39.42;;
56321;SDS011;42227;6.376;-10.782;2023-03-14T04:06:18;58.17;;;35.45;;
56321;SDS011;42227;6.376;-10.782;2023-03-14T04:08:49;58.05;;;35.35;;
56321;SDS011;42227;6.376;-10.782;2023-03-14T04:11:52;48.80;;;31.38;;
56321;SDS011;42227;6.376;-10.782;2023-03-14T04:14:27;44.63;;;31.58;;
56321;SDS011;42227;6.376;-10.782;2023-03-14T04:17:09;51.03;;;35.03;;
56321;SDS011;42227;6.376;-10.782;2023-03-14T04:19:38;47.17;;;32.70;;
56321;SDS011;42227;6.376;-10.782;2023-03-14T04:22:06;44.30;;;32.58;;
56321;SDS011;42227;6.376;-10.782;2023-03-14T04:24:43;48.35;;;33.42;;
56321;SDS011;42227;6.376;-10.782;2023-03-14T04:27:12;51.10;;;35.90;;
56321;SDS011;42227;6.376;-10.782;2023-03-14T04:29:42;44.05;;;34.80;;
56321;SDS011;42227;6.376;-10.782;2023-03-14T04:32:13;57.20;;;39.25;;
56321;SDS011;42227;6.376;-10.782;2023-03-14T04:34:42;71.60;;;49.13;;
56321;SDS011;42227;6.376;-10.782;2023-03-14T04:37:11;60.50;;;43.47;;
56321;SDS011;42227;6.376;-10.782;2023-03-14T04:39:42;60.55;;;41.92;;
56321;SDS011;42227;6.376;-10.782;2023-03-14T04:42:18;57.47;;;40.53;;
56321;SDS011;42227;6.376;-10.782;2023-03-14T04:44:49;48.78;;;38.10;;
56321;SDS011;42227;6.376;-10.782;2023-03-14T04:47:21;63.90;;;43.28;;
56321;SDS011;42227;6.376;-10.782;2023-03-14T04:49:50;61.20;;;42.53;;
56321;SDS011;42227;6.376;-10.782;2023-03-14T04:52:20;68.65;;;47.28;;
56321;SDS011;42227;6.376;-10.782;2023-03-14T04:54:48;42.92;;;33.20;;
56321;SDS011;42227;6.376;-10.782;2023-03-14T04:57:17;42.30;;;30.42;;
56321;SDS011;42227;6.376;-10.782;2023-03-14T04:59:47;37.72;;;29.30;;
56321;SDS011;42227;6.376;-10.782;2023-03-14T05:02:34;48.97;;;36.45;;
56321;SDS011;42227;6.376;-10.782;2023-03-14T05:05:21;49.67;;;34.05;;
56321;SDS011;42227;6.376;-10.782;2023-03-14T05:08:11;44.65;;;34.95;;
56321;SDS011;42227;6.376;-10.782;2023-03-14T05:10:53;54.78;;;38.95;;
56321;SDS011;42227;6.376;-10.782;2023-03-14T05:13:40;44.25;;;34.70;;
56321;SDS011;42227;6.376;-10.782;2023-03-14T05:16:24;51.78;;;35.95;;
56321;SDS011;42227;6.376;-10.782;2023-03-14T05:19:04;43.20;;;27.83;;
56321;SDS011;42227;6.376;-10.782;2023-03-14T05:21:55;58.92;;;40.47;;
56321;SDS011;42227;6.376;-10.782;2023-03-14T05:24:43;53.97;;;30.77;;
56321;SDS011;42227;6.376;-10.782;2023-03-14T05:27:29;45.17;;;28.83;;
56321;SDS011;42227;6.376;-10.782;2023-03-14T05:30:06;48.42;;;36.45;;
56321;SDS011;42227;6.376;-10.782;2023-03-14T05:32:53;40.05;;;27.67;;
56321;SDS011;42227;6.376;-10.782;2023-03-14T05:35:41;53.65;;;31.33;;
56321;SDS011;42227;6.376;-10.782;2023-03-14T05:38:28;42.75;;;30.15;;
56321;SDS011;42227;6.376;-10.782;2023-03-14T05:41:15;44.40;;;31.75;;
56321;SDS011;42227;6.376;-10.782;2023-03-14T05:44:03;51.70;;;32.92;;
56321;SDS011;42227;6.376;-10.782;2023-03-14T05:46:54;43.15;;;27.10;;
56321;SDS011;42227;6.376;-10.782;2023-03-14T05:49:43;34.05;;;25.00;;
56321;SDS011;42227;6.376;-10.782;2023-03-14T05:52:33;44.75;;;27.25;;
56321;SDS011;42227;6.376;-10.782;2023-03-14T05:55:40;42.92;;;28.83;;
56321;SDS011;42227;6.376;-10.782;2023-03-14T05:58:24;45.13;;;29.98;;
56321;SDS011;42227;6.376;-10.782;2023-03-14T06:01:19;40.80;;;28.02;;
56321;SDS011;42227;6.376;-10.782;2023-03-14T06:04:09;39.58;;;28.17;;
56321;SDS011;42227;6.376;-10.782;2023-03-14T06:06:38;44.15;;;30.23;;
56321;SDS011;42227;6.376;-10.782;2023-03-14T06:09:08;37.55;;;24.85;;
56321;SDS011;42227;6.376;-10.782;2023-03-14T06:11:38;33.38;;;25.30;;
56321;SDS011;42227;6.376;-10.782;2023-03-14T06:27:19;38.50;;;26.77;;
56321;SDS011;42227;6.376;-10.782;2023-03-14T06:29:51;46.35;;;31.13;;
56321;SDS011;42227;6.376;-10.782;2023-03-14T06:32:20;36.47;;;29.45;;
56321;SDS011;42227;6.376;-10.782;2023-03-14T06:34:51;38.33;;;30.15;;
56321;SDS011;42227;6.376;-10.782;2023-03-14T06:37:20;44.88;;;33.55;;
56321;SDS011;42227;6.376;-10.782;2023-03-14T06:39:48;49.22;;;33.30;;
56321;SDS011;42227;6.376;-10.782;2023-03-14T06:42:35;43.40;;;27.60;;
56321;SDS011;42227;6.376;-10.782;2023-03-14T06:45:04;31.02;;;25.52;;
56321;SDS011;42227;6.376;-10.782;2023-03-14T06:47:35;39.53;;;25.08;;
56321;SDS011;42227;6.376;-10.782;2023-03-14T06:50:03;38.13;;;26.80;;
56321;SDS011;42227;6.376;-10.782;2023-03-14T06:52:37;34.22;;;23.83;;
56321;SDS011;42227;6.376;-10.782;2023-03-14T06:55:05;34.50;;;25.27;;
56321;SDS011;42227;6.376;-10.782;2023-03-14T06:57:35;49.28;;;26.38;;
56321;SDS011;42227;6.376;-10.782;2023-03-14T07:00:05;41.15;;;23.92;;
56321;SDS011;42227;6.376;-10.782;2023-03-14T07:02:35;36.88;;;23.90;;
56321;SDS011;42227;6.376;-10.782;2023-03-14T07:05:22;34.80;;;24.50;;
56321;SDS011;42227;6.376;-10.782;2023-03-14T07:07:50;38.63;;;27.60;;
56321;SDS011;42227;6.376;-10.782;2023-03-14T07:10:18;46.42;;;33.40;;
56321;SDS011;42227;6.376;-10.782;2023-03-14T07:12:49;37.00;;;24.45;;
56321;SDS011;42227;6.376;-10.782;2023-03-14T07:15:17;31.75;;;22.27;;
56321;SDS011;42227;6.376;-10.782;2023-03-14T07:17:50;35.22;;;23.95;;
56321;SDS011;42227;6.376;-10.782;2023-03-14T07:20:21;27.25;;;21.88;;
56321;SDS011;42227;6.376;-10.782;2023-03-14T07:22:50;29.73;;;24.75;;
56321;SDS011;42227;6.376;-10.782;2023-03-14T07:25:28;35.85;;;22.67;;
56321;SDS011;42227;6.376;-10.782;2023-03-14T07:27:58;29.98;;;23.95;;
56321;SDS011;42227;6.376;-10.782;2023-03-14T07:30:26;42.28;;;25.05;;
56321;SDS011;42227;6.376;-10.782;2023-03-14T07:32:57;46.38;;;30.75;;
56321;SDS011;42227;6.376;-10.782;2023-03-14T07:35:28;39.90;;;28.77;;
56321;SDS011;42227;6.376;-10.782;2023-03-14T07:37:57;30.20;;;22.42;;
56321;SDS011;42227;6.376;-10.782;2023-03-14T07:40:32;21.83;;;18.33;;
56321;SDS011;42227;6.376;-10.782;2023-03-14T07:43:02;27.83;;;19.55;;
56321;SDS011;42227;6.376;-10.782;2023-03-14T07:45:41;26.25;;;19.83;;
56321;SDS011;42227;6.376;-10.782;2023-03-14T07:48:16;21.35;;;15.50;;
56321;SDS011;42227;6.376;-10.782;2023-03-14T07:50:48;30.90;;;18.05;;
56321;SDS011;42227;6.376;-10.782;2023-03-14T07:53:16;21.10;;;15.70;;
56321;SDS011;42227;6.376;-10.782;2023-03-14T07:55:45;23.48;;;14.80;;
56321;SDS011;42227;6.376;-10.782;2023-03-14T07:58:14;26.38;;;15.30;;
56321;SDS011;42227;6.376;-10.782;2023-03-14T08:00:42;22.13;;;16.80;;
56321;SDS011;42227;6.376;-10.782;2023-03-14T08:03:11;27.45;;;15.48;;
56321;SDS011;42227;6.376;-10.782;2023-03-14T08:05:39;15.27;;;13.27;;
56321;SDS011;42227;6.376;-10.782;2023-03-14T08:08:07;18.13;;;14.95;;
56321;SDS011;42227;6.376;-10.782;2023-03-14T08:10:36;23.52;;;14.68;;
56321;SDS011;42227;6.376;-10.782;2023-03-14T08:13:04;24.80;;;13.73;;
56321;SDS011;42227;6.376;-10.782;2023-03-14T08:15:32;21.05;;;12.13;;
56321;SDS011;42227;6.376;-10.782;2023-03-14T08:18:00;17.85;;;13.10;;
56321;SDS011;42227;6.376;-10.782;2023-03-14T08:20:29;20.60;;;13.07;;
56321;SDS011;42227;6.376;-10.782;2023-03-14T08:22:57;14.25;;;11.25;;
56321;SDS011;42227;6.376;-10.782;2023-03-14T08:25:27;14.98;;;11.55;;
56321;SDS011;42227;6.376;-10.782;2023-03-14T08:27:56;17.50;;;9.98;;
56321;SDS011;42227;6.376;-10.782;2023-03-14T08:30:24;19.40;;;10.23;;
56321;SDS011;42227;6.376;-10.782;2023-03-14T08:32:53;14.85;;;10.10;;
56321;SDS011;42227;6.376;-10.782;2023-03-14T08:35:23;16.83;;;12.50;;
56321;SDS011;42227;6.376;-10.782;2023-03-14T08:37:52;16.20;;;10.15;;
56321;SDS011;42227;6.376;-10.782;2023-03-14T08:40:21;13.70;;;10.40;;
56321;SDS011;42227;6.376;-10.782;2023-03-14T08:42:49;12.85;;;11.60;;
56321;SDS011;42227;6.376;-10.782;2023-03-14T08:45:17;29.30;;;10.52;;
56321;SDS011;42227;6.376;-10.782;2023-03-14T08:47:45;23.60;;;11.05;;
56321;SDS011;42227;6.376;-10.782;2023-03-14T08:50:13;17.20;;;9.80;;
56321;SDS011;42227;6.376;-10.782;2023-03-14T08:52:42;23.00;;;11.35;;
56321;SDS011;42227;6.376;-10.782;2023-03-14T08:55:11;20.70;;;10.23;;
56321;SDS011;42227;6.376;-10.782;2023-03-14T08:57:39;25.42;;;10.98;;
56321;SDS011;42227;6.376;-10.782;2023-03-14T09:00:07;17.38;;;9.98;;
56321;SDS011;42227;6.376;-10.782;2023-03-14T09:02:36;29.45;;;12.60;;
56321;SDS011;42227;6.376;-10.782;2023-03-14T09:05:05;23.45;;;10.85;;
56321;SDS011;42227;6.376;-10.782;2023-03-14T09:07:34;22.17;;;12.60;;
56321;SDS011;42227;6.376;-10.782;2023-03-14T09:10:03;29.05;;;13.32;;
56321;SDS011;42227;6.376;-10.782;2023-03-14T09:12:31;15.07;;;11.85;;
56321;SDS011;42227;6.376;-10.782;2023-03-14T09:14:59;28.48;;;13.82;;
56321;SDS011;42227;6.376;-10.782;2023-03-14T09:17:28;19.20;;;10.90;;
56321;SDS011;42227;6.376;-10.782;2023-03-14T09:19:56;32.05;;;12.57;;
56321;SDS011;42227;6.376;-10.782;2023-03-14T09:22:26;50.20;;;18.90;;
56321;SDS011;42227;6.376;-10.782;2023-03-14T09:24:54;34.67;;;15.48;;
56321;SDS011;42227;6.376;-10.782;2023-03-14T09:27:23;22.50;;;12.15;;
56321;SDS011;42227;6.376;-10.782;2023-03-14T09:29:51;32.55;;;14.82;;
56321;SDS011;42227;6.376;-10.782;2023-03-14T09:32:19;18.23;;;9.52;;
56321;SDS011;42227;6.376;-10.782;2023-03-14T09:34:47;15.23;;;8.68;;
56321;SDS011;42227;6.376;-10.782;2023-03-14T09:37:16;11.60;;;7.35;;
56321;SDS011;42227;6.376;-10.782;2023-03-14T09:39:44;11.50;;;8.02;;
56321;SDS011;42227;6.376;-10.782;2023-03-14T09:42:16;19.85;;;11.38;;
56321;SDS011;42227;6.376;-10.782;2023-03-14T09:45:01;28.92;;;14.07;;
56321;SDS011;42227;6.376;-10.782;2023-03-14T09:47:32;16.13;;;9.57;;
56321;SDS011;42227;6.376;-10.782;2023-03-14T09:50:12;12.75;;;7.32;;
56321;SDS011;42227;6.376;-10.782;2023-03-14T09:52:45;19.15;;;9.82;;
56321;SDS011;42227;6.376;-10.782;2023-03-14T09:55:20;36.05;;;14.18;;
56321;SDS011;42227;6.376;-10.782;2023-03-14T09:57:50;15.18;;;7.13;;
56321;SDS011;42227;6.376;-10.782;2023-03-14T10:00:23;26.20;;;13.48;;
56321;SDS011;42227;6.376;-10.782;2023-03-14T10:03:19;16.60;;;8.50;;
56321;SDS011;42227;6.376;-10.782;2023-03-14T10:05:53;26.52;;;9.55;;
56321;SDS011;42227;6.376;-10.782;2023-03-14T10:08:23;19.17;;;9.07;;
56321;SDS011;42227;6.376;-10.782;2023-03-14T10:10:51;13.10;;;8.05;;
56321;SDS011;42227;6.376;-10.782;2023-03-14T10:13:21;17.77;;;6.50;;
56321;SDS011;42227;6.376;-10.782;2023-03-14T10:15:55;11.70;;;6.50;;
56321;SDS011;42227;6.376;-10.782;2023-03-14T10:18:31;10.90;;;7.50;;
56321;SDS011;42227;6.376;-10.782;2023-03-14T10:21:06;32.70;;;12.63;;
56321;SDS011;42227;6.376;-10.782;2023-03-14T10:23:48;26.88;;;16.70;;
56321;SDS011;42227;6.376;-10.782;2023-03-14T10:26:17;18.35;;;8.98;;
56321;SDS011;42227;6.376;-10.782;2023-03-14T10:29:02;13.68;;;6.80;;
56321;SDS011;42227;6.376;-10.782;2023-03-14T10:31:52;16.88;;;6.43;;
56321;SDS011;42227;6.376;-10.782;2023-03-14T10:34:24;16.30;;;7.82;;
56321;SDS011;42227;6.376;-10.782;2023-03-14T10:36:58;11.82;;;6.95;;
56321;SDS011;42227;6.376;-10.782;2023-03-14T10:39:37;19.48;;;12.07;;
56321;SDS011;42227;6.376;-10.782;2023-03-14T10:42:27;20.98;;;8.70;;
56321;SDS011;42227;6.376;-10.782;2023-03-14T10:45:22;14.27;;;9.65;;
56321;SDS011;42227;6.376;-10.782;2023-03-14T10:47:53;18.52;;;10.25;;
56321;SDS011;42227;6.376;-10.782;2023-03-14T10:50:26;15.57;;;8.05;;
56321;SDS011;42227;6.376;-10.782;2023-03-14T10:53:00;21.20;;;12.88;;
56321;SDS011;42227;6.376;-10.782;2023-03-14T10:55:41;13.55;;;9.60;;
56321;SDS011;42227;6.376;-10.782;2023-03-14T10:58:21;21.00;;;12.07;;
56321;SDS011;42227;6.376;-10.782;2023-03-14T11:01:12;17.38;;;7.90;;
56321;SDS011;42227;6.376;-10.782;2023-03-14T11:03:41;14.13;;;8.63;;
56321;SDS011;42227;6.376;-10.782;2023-03-14T11:06:19;48.63;;;11.38;;
56321;SDS011;42227;6.376;-10.782;2023-03-14T11:08:59;25.42;;;12.02;;
56321;SDS011;42227;6.376;-10.782;2023-03-14T11:11:30;14.73;;;7.32;;
56321;SDS011;42227;6.376;-10.782;2023-03-14T11:14:06;15.18;;;7.45;;
56321;SDS011;42227;6.376;-10.782;2023-03-14T11:16:49;20.27;;;6.53;;
56321;SDS011;42227;6.376;-10.782;2023-03-14T11:19:27;25.48;;;6.20;;
56321;SDS011;42227;6.376;-10.782;2023-03-14T11:22:24;18.02;;;6.80;;
56321;SDS011;42227;6.376;-10.782;2023-03-14T11:33:14;9.85;;;6.22;;
56321;SDS011;42227;6.376;-10.782;2023-03-14T11:41:14;20.42;;;7.82;;
56321;SDS011;42227;6.376;-10.782;2023-03-14T11:43:47;19.27;;;7.20;;
56321;SDS011;42227;6.376;-10.782;2023-03-14T11:46:38;22.20;;;11.35;;
56321;SDS011;42227;6.376;-10.782;2023-03-14T11:51:43;15.68;;;9.82;;
56321;SDS011;42227;6.376;-10.782;2023-03-14T11:57:15;15.65;;;9.77;;
56321;SDS011;42227;6.376;-10.782;2023-03-14T12:11:02;21.77;;;12.10;;
56321;SDS011;42227;6.376;-10.782;2023-03-14T12:13:33;16.45;;;9.10;;
56321;SDS011;42227;6.376;-10.782;2023-03-14T12:16:05;23.55;;;14.88;;
56321;SDS011;42227;6.376;-10.782;2023-03-14T12:18:46;28.52;;;14.60;;
56321;SDS011;42227;6.376;-10.782;2023-03-14T12:21:14;47.22;;;20.88;;
56321;SDS011;42227;6.376;-10.782;2023-03-14T12:26:18;28.85;;;14.60;;
56321;SDS011;42227;6.376;-10.782;2023-03-14T12:28:52;25.20;;;19.27;;
56321;SDS011;42227;6.376;-10.782;2023-03-14T12:31:43;23.90;;;14.30;;
56321;SDS011;42227;6.376;-10.782;2023-03-14T12:39:19;29.25;;;17.08;;
56321;SDS011;42227;6.376;-10.782;2023-03-14T12:42:14;33.58;;;21.40;;
56321;SDS011;42227;6.376;-10.782;2023-03-14T12:45:27;20.58;;;11.38;;
56321;SDS011;42227;6.376;-10.782;2023-03-14T12:50:40;10.15;;;8.48;;
56321;SDS011;42227;6.376;-10.782;2023-03-14T12:59:04;12.18;;;7.38;;
56321;SDS011;42227;6.376;-10.782;2023-03-14T13:01:56;19.73;;;6.18;;
56321;SDS011;42227;6.376;-10.782;2023-03-14T13:04:34;14.73;;;9.00;;
56321;SDS011;42227;6.376;-10.782;2023-03-14T13:07:13;13.50;;;7.72;;
56321;SDS011;42227;6.376;-10.782;2023-03-14T13:15:40;24.85;;;12.20;;
56321;SDS011;42227;6.376;-10.782;2023-03-14T13:18:58;20.30;;;10.93;;
56321;SDS011;42227;6.376;-10.782;2023-03-14T13:26:42;13.32;;;8.98;;
56321;SDS011;42227;6.376;-10.782;2023-03-14T13:29:25;17.13;;;9.50;;
56321;SDS011;42227;6.376;-10.782;2023-03-14T13:32:01;14.93;;;10.50;;
56321;SDS011;42227;6.376;-10.782;2023-03-14T13:34:43;12.20;;;7.53;;
56321;SDS011;42227;6.376;-10.782;2023-03-14T13:37:30;8.02;;;6.03;;
56321;SDS011;42227;6.376;-10.782;2023-03-14T13:39:58;21.50;;;14.05;;
56321;SDS011;42227;6.376;-10.782;2023-03-14T13:42:27;15.50;;;9.73;;
56321;SDS011;42227;6.376;-10.782;2023-03-14T13:44:57;14.80;;;7.38;;
56321;SDS011;42227;6.376;-10.782;2023-03-14T13:47:25;9.95;;;6.60;;
56321;SDS011;42227;6.376;-10.782;2023-03-14T13:49:54;9.55;;;6.38;;
56321;SDS011;42227;6.376;-10.782;2023-03-14T13:52:29;14.05;;;8.25;;
56321;SDS011;42227;6.376;-10.782;2023-03-14T13:55:14;12.05;;;6.97;;
56321;SDS011;42227;6.376;-10.782;2023-03-14T13:57:50;20.23;;;7.50;;
56321;SDS011;42227;6.376;-10.782;2023-03-14T14:00:23;9.52;;;7.35;;
56321;SDS011;42227;6.376;-10.782;2023-03-14T14:02:54;14.15;;;9.55;;
56321;SDS011;42227;6.376;-10.782;2023-03-14T14:05:25;22.65;;;8.80;;
56321;SDS011;42227;6.376;-10.782;2023-03-14T14:07:55;19.10;;;9.93;;
56321;SDS011;42227;6.376;-10.782;2023-03-14T14:10:25;17.05;;;7.25;;
56321;SDS011;42227;6.376;-10.782;2023-03-14T14:12:58;13.73;;;7.18;;
56321;SDS011;42227;6.376;-10.782;2023-03-14T14:15:31;13.15;;;8.30;;
56321;SDS011;42227;6.376;-10.782;2023-03-14T14:18:06;21.67;;;8.52;;
56321;SDS011;42227;6.376;-10.782;2023-03-14T14:20:38;15.02;;;7.55;;
56321;SDS011;42227;6.376;-10.782;2023-03-14T14:23:12;16.40;;;9.70;;
56321;SDS011;42227;6.376;-10.782;2023-03-14T14:25:49;10.70;;;8.00;;
56321;SDS011;42227;6.376;-10.782;2023-03-14T14:36:32;12.35;;;7.15;;
56321;SDS011;42227;6.376;-10.782;2023-03-14T14:41:47;15.05;;;7.05;;
56321;SDS011;42227;6.376;-10.782;2023-03-14T14:46:48;13.93;;;6.85;;
56321;SDS011;42227;6.376;-10.782;2023-03-14T14:49:18;15.85;;;6.82;;
56321;SDS011;42227;6.376;-10.782;2023-03-14T14:51:48;13.77;;;6.05;;
56321;SDS011;42227;6.376;-10.782;2023-03-14T14:54:19;13.82;;;8.43;;
56321;SDS011;42227;6.376;-10.782;2023-03-14T14:57:04;17.65;;;6.32;;
56321;SDS011;42227;6.376;-10.782;2023-03-14T14:59:41;16.48;;;8.68;;
56321;SDS011;42227;6.376;-10.782;2023-03-14T15:02:58;8.18;;;5.90;;
56321;SDS011;42227;6.376;-10.782;2023-03-14T15:05:16;14.63;;;8.00;;
56321;SDS011;42227;6.376;-10.782;2023-03-14T15:07:45;21.90;;;7.78;;
56321;SDS011;42227;6.376;-10.782;2023-03-14T15:10:15;19.75;;;8.10;;
56321;SDS011;42227;6.376;-10.782;2023-03-14T15:12:45;11.63;;;7.20;;
56321;SDS011;42227;6.376;-10.782;2023-03-14T15:15:14;11.02;;;6.43;;
56321;SDS011;42227;6.376;-10.782;2023-03-14T15:17:44;11.45;;;6.28;;
56321;SDS011;42227;6.376;-10.782;2023-03-14T15:20:13;15.65;;;7.57;;
56321;SDS011;42227;6.376;-10.782;2023-03-14T15:22:43;20.17;;;7.07;;
56321;SDS011;42227;6.376;-10.782;2023-03-14T15:25:12;24.20;;;6.95;;
56321;SDS011;42227;6.376;-10.782;2023-03-14T15:28:01;14.88;;;7.93;;
56321;SDS011;42227;6.376;-10.782;2023-03-14T15:30:30;31.77;;;7.10;;
56321;SDS011;42227;6.376;-10.782;2023-03-14T15:33:01;15.02;;;6.55;;
56321;SDS011;42227;6.376;-10.782;2023-03-14T15:35:29;13.77;;;5.72;;
56321;SDS011;42227;6.376;-10.782;2023-03-14T15:37:57;21.42;;;7.75;;
56321;SDS011;42227;6.376;-10.782;2023-03-14T15:40:25;18.30;;;7.82;;
56321;SDS011;42227;6.376;-10.782;2023-03-14T15:42:56;10.98;;;6.38;;
56321;SDS011;42227;6.376;-10.782;2023-03-14T15:45:25;14.30;;;6.38;;
56321;SDS011;42227;6.376;-10.782;2023-03-14T15:47:53;13.27;;;7.32;;
56321;SDS011;42227;6.376;-10.782;2023-03-14T15:50:21;13.48;;;7.15;;
56321;SDS011;42227;6.376;-10.782;2023-03-14T15:52:51;12.68;;;7.53;;
56321;SDS011;42227;6.376;-10.782;2023-03-14T15:55:19;13.32;;;7.63;;
56321;SDS011;42227;6.376;-10.782;2023-03-14T15:57:48;25.02;;;8.05;;
56321;SDS011;42227;6.376;-10.782;2023-03-14T16:00:17;23.52;;;7.38;;
56321;SDS011;42227;6.376;-10.782;2023-03-14T16:02:47;9.95;;;6.55;;
56321;SDS011;42227;6.376;-10.782;2023-03-14T16:05:15;13.73;;;6.55;;
56321;SDS011;42227;6.376;-10.782;2023-03-14T16:07:44;17.58;;;7.57;;
56321;SDS011;42227;6.376;-10.782;2023-03-14T16:10:13;29.42;;;11.40;;
56321;SDS011;42227;6.376;-10.782;2023-03-14T16:12:43;16.67;;;8.48;;
56321;SDS011;42227;6.376;-10.782;2023-03-14T16:15:14;8.63;;;6.75;;
56321;SDS011;42227;6.376;-10.782;2023-03-14T16:17:42;12.77;;;6.63;;
56321;SDS011;42227;6.376;-10.782;2023-03-14T16:20:13;12.00;;;7.13;;
56321;SDS011;42227;6.376;-10.782;2023-03-14T16:22:41;10.25;;;5.72;;
56321;SDS011;42227;6.376;-10.782;2023-03-14T16:25:10;20.35;;;8.15;;
56321;SDS011;42227;6.376;-10.782;2023-03-14T16:27:38;15.32;;;6.28;;
56321;SDS011;42227;6.376;-10.782;2023-03-14T16:30:08;25.90;;;10.10;;